sensor_id;sensor_type;location;lat;lon;timestamp;pressure;altitude;pressure_sealevel;temperature;humidity
25638;BME280;13496;51.040;13.680;2023-05-31T00:04:50;100549.84;;;18.06;39.21
25638;BME280;13496;51.040;13.680;2023-05-31T00:09:51;100553.88;;;17.60;40.10
25638;BME280;13496;51.040;13.680;2023-05-31T00:14:53;100555.09;;;17.90;40.84
25638;BME280;13496;51.040;13.680;2023-05-31T00:19:54;100554.91;;;17.08;42.00
25638;BME280;13496;51.040;13.680;2023-05-31T00:24:56;100555.06;;;18.31;40.46
25638;BME280;13496;51.040;13.680;2023-05-31T00:29:58;100561.66;;;16.77;42.44
25638;BME280;13496;51.040;13.680;2023-05-31T00:34:59;100566.59;;;17.22;41.35
25638;BME280;13496;51.040;13.680;2023-05-31T00:40:02;100570.69;;;17.25;41.62
25638;BME280;13496;51.040;13.680;2023-05-31T00:45:05;100568.94;;;17.50;41.73
25638;BME280;13496;51.040;13.680;2023-05-31T00:50:08;100561.19;;;17.99;40.89
25638;BME280;13496;51.040;13.680;2023-05-31T00:55:09;100555.28;;;17.88;40.77
25638;BME280;13496;51.040;13.680;2023-05-31T01:00:14;100553.88;;;17.52;41.50
25638;BME280;13496;51.040;13.680;2023-05-31T01:05:16;100567.19;;;17.75;41.15
25638;BME280;13496;51.040;13.680;2023-05-31T01:10:18;100560.72;;;17.28;42.20
25638;BME280;13496;51.040;13.680;2023-05-31T01:15:31;100567.47;;;16.97;42.19
25638;BME280;13496;51.040;13.680;2023-05-31T01:20:37;100563.66;;;17.25;41.98
25638;BME280;13496;51.040;13.680;2023-05-31T01:25:57;100566.28;;;17.25;41.56
25638;BME280;13496;51.040;13.680;2023-05-31T01:31:02;100553.31;;;17.24;42.00
25638;BME280;13496;51.040;13.680;2023-05-31T01:36:04;100575.84;;;15.86;44.12
25638;BME280;13496;51.040;13.680;2023-05-31T01:41:07;100566.72;;;17.12;42.05
25638;BME280;13496;51.040;13.680;2023-05-31T01:46:12;100566.31;;;17.41;41.52
25638;BME280;13496;51.040;13.680;2023-05-31T01:51:14;100559.75;;;17.46;41.63
25638;BME280;13496;51.040;13.680;2023-05-31T01:56:17;100567.00;;;17.52;41.29
25638;BME280;13496;51.040;13.680;2023-05-31T02:01:20;100572.31;;;16.83;43.10
25638;BME280;13496;51.040;13.680;2023-05-31T02:06:22;100571.94;;;16.52;43.71
25638;BME280;13496;51.040;13.680;2023-05-31T02:11:28;100566.00;;;17.45;42.91
25638;BME280;13496;51.040;13.680;2023-05-31T02:16:31;100576.91;;;16.81;42.60
25638;BME280;13496;51.040;13.680;2023-05-31T02:21:33;100576.59;;;16.84;43.44
25638;BME280;13496;51.040;13.680;2023-05-31T02:26:38;100583.88;;;16.99;42.65
25638;BME280;13496;51.040;13.680;2023-05-31T02:31:40;100589.47;;;15.44;45.21
25638;BME280;13496;51.040;13.680;2023-05-31T02:36:42;100582.50;;;16.68;43.23
25638;BME280;13496;51.040;13.680;2023-05-31T02:41:43;100588.16;;;16.74;43.31
25638;BME280;13496;51.040;13.680;2023-05-31T02:46:45;100589.25;;;16.97;42.85
25638;BME280;13496;51.040;13.680;2023-05-31T02:51:47;100582.31;;;16.80;43.28
25638;BME280;13496;51.040;13.680;2023-05-31T02:57:07;100581.50;;;17.22;42.82
25638;BME280;13496;51.040;13.680;2023-05-31T03:02:12;100597.94;;;16.72;44.11
25638;BME280;13496;51.040;13.680;2023-05-31T03:07:40;100604.75;;;16.38;44.05
25638;BME280;13496;51.040;13.680;2023-05-31T03:12:42;100604.00;;;16.72;42.65
25638;BME280;13496;51.040;13.680;2023-05-31T03:17:44;100601.16;;;15.95;45.24
25638;BME280;13496;51.040;13.680;2023-05-31T03:22:46;100604.72;;;16.12;44.27
25638;BME280;13496;51.040;13.680;2023-05-31T03:27:48;100597.13;;;15.56;44.90
25638;BME280;13496;51.040;13.680;2023-05-31T03:32:49;100600.72;;;15.55;45.15
25638;BME280;13496;51.040;13.680;2023-05-31T03:37:52;100590.28;;;15.90;44.80
25638;BME280;13496;51.040;13.680;2023-05-31T03:42:54;100590.91;;;15.01;46.27
25638;BME280;13496;51.040;13.680;2023-05-31T03:47:57;100593.50;;;16.46;44.48
25638;BME280;13496;51.040;13.680;2023-05-31T03:52:58;100601.19;;;16.39;43.45
25638;BME280;13496;51.040;13.680;2023-05-31T03:58:00;100595.03;;;16.75;44.59
25638;BME280;13496;51.040;13.680;2023-05-31T04:03:02;100594.78;;;16.86;43.08
25638;BME280;13496;51.040;13.680;2023-05-31T04:08:04;100587.91;;;17.27;42.46
25638;BME280;13496;51.040;13.680;2023-05-31T04:13:07;100592.19;;;17.95;43.05
25638;BME280;13496;51.040;13.680;2023-05-31T04:18:09;100585.75;;;18.55;42.63
25638;BME280;13496;51.040;13.680;2023-05-31T04:23:10;100589.63;;;18.83;41.67
25638;BME280;13496;51.040;13.680;2023-05-31T04:28:14;100590.63;;;18.82;42.09
25638;BME280;13496;51.040;13.680;2023-05-31T04:33:16;100592.13;;;18.85;41.29
25638;BME280;13496;51.040;13.680;2023-05-31T04:38:19;100598.84;;;18.79;41.34
25638;BME280;13496;51.040;13.680;2023-05-31T04:43:25;100596.09;;;19.20;41.24
25638;BME280;13496;51.040;13.680;2023-05-31T04:48:27;100605.09;;;18.70;41.64
25638;BME280;13496;51.040;13.680;2023-05-31T04:53:31;100601.38;;;18.16;42.23
25638;BME280;13496;51.040;13.680;2023-05-31T04:58:33;100603.19;;;17.99;42.76
25638;BME280;13496;51.040;13.680;2023-05-31T05:03:35;100615.34;;;17.49;42.67
25638;BME280;13496;51.040;13.680;2023-05-31T05:08:36;100599.19;;;17.70;42.69
25638;BME280;13496;51.040;13.680;2023-05-31T05:13:40;100612.69;;;17.92;42.96
25638;BME280;13496;51.040;13.680;2023-05-31T05:18:42;100603.66;;;17.86;42.72
25638;BME280;13496;51.040;13.680;2023-05-31T05:23:44;100606.25;;;17.27;43.48
25638;BME280;13496;51.040;13.680;2023-05-31T05:28:46;100602.88;;;18.10;42.37
25638;BME280;13496;51.040;13.680;2023-05-31T05:33:48;100614.34;;;18.25;42.30
25638;BME280;13496;51.040;13.680;2023-05-31T05:38:49;100607.41;;;17.83;42.22
25638;BME280;13496;51.040;13.680;2023-05-31T05:43:52;100620.84;;;17.22;43.96
25638;BME280;13496;51.040;13.680;2023-05-31T05:48:54;100608.63;;;18.13;41.91
25638;BME280;13496;51.040;13.680;2023-05-31T05:53:58;100606.81;;;18.14;41.82
25638;BME280;13496;51.040;13.680;2023-05-31T05:59:00;100607.13;;;18.19;41.53
25638;BME280;13496;51.040;13.680;2023-05-31T06:04:25;100611.06;;;18.15;42.30
25638;BME280;13496;51.040;13.680;2023-05-31T06:09:27;100613.34;;;18.51;41.47
25638;BME280;13496;51.040;13.680;2023-05-31T06:14:28;100620.25;;;18.27;42.15
25638;BME280;13496;51.040;13.680;2023-05-31T06:19:31;100615.97;;;18.43;41.35
25638;BME280;13496;51.040;13.680;2023-05-31T06:24:32;100609.25;;;18.07;42.05
25638;BME280;13496;51.040;13.680;2023-05-31T06:29:35;100612.19;;;18.53;40.70
25638;BME280;13496;51.040;13.680;2023-05-31T06:34:52;100617.94;;;18.81;40.10
25638;BME280;13496;51.040;13.680;2023-05-31T06:39:54;100614.81;;;18.61;41.16
25638;BME280;13496;51.040;13.680;2023-05-31T06:44:56;100610.53;;;18.60;40.22
25638;BME280;13496;51.040;13.680;2023-05-31T06:50:30;100612.75;;;19.04;40.33
25638;BME280;13496;51.040;13.680;2023-05-31T06:55:50;100604.22;;;19.02;41.31
25638;BME280;13496;51.040;13.680;2023-05-31T07:00:56;100605.25;;;19.32;39.88
25638;BME280;13496;51.040;13.680;2023-05-31T07:05:58;100610.34;;;18.86;39.99
25638;BME280;13496;51.040;13.680;2023-05-31T07:11:00;100602.63;;;19.24;40.68
25638;BME280;13496;51.040;13.680;2023-05-31T07:16:02;100604.88;;;19.44;40.12
25638;BME280;13496;51.040;13.680;2023-05-31T07:21:04;100598.03;;;19.57;40.23
25638;BME280;13496;51.040;13.680;2023-05-31T07:26:05;100587.09;;;19.77;39.05
25638;BME280;13496;51.040;13.680;2023-05-31T07:31:07;100588.50;;;19.88;38.74
25638;BME280;13496;51.040;13.680;2023-05-31T07:36:09;100576.16;;;19.88;39.03
25638;BME280;13496;51.040;13.680;2023-05-31T07:41:11;100581.47;;;20.03;38.31
25638;BME280;13496;51.040;13.680;2023-05-31T07:46:12;100581.13;;;20.06;38.75
25638;BME280;13496;51.040;13.680;2023-05-31T07:51:14;100581.88;;;20.15;37.72
25638;BME280;13496;51.040;13.680;2023-05-31T07:56:16;100577.34;;;20.23;38.13
25638;BME280;13496;51.040;13.680;2023-05-31T08:01:18;100559.19;;;20.28;37.86
25638;BME280;13496;51.040;13.680;2023-05-31T08:06:20;100556.50;;;20.51;37.13
25638;BME280;13496;51.040;13.680;2023-05-31T08:11:21;100555.47;;;20.38;37.43
25638;BME280;13496;51.040;13.680;2023-05-31T08:16:23;100548.75;;;20.50;37.22
25638;BME280;13496;51.040;13.680;2023-05-31T08:21:25;100542.59;;;20.72;36.41
25638;BME280;13496;51.040;13.680;2023-05-31T08:26:27;100540.78;;;20.73;37.08
25638;BME280;13496;51.040;13.680;2023-05-31T08:31:28;100547.94;;;20.94;36.00
25638;BME280;13496;51.040;13.680;2023-05-31T08:36:31;100541.88;;;20.78;36.36
25638;BME280;13496;51.040;13.680;2023-05-31T08:52:06;100524.75;;;20.89;36.05
25638;BME280;13496;51.040;13.680;2023-05-31T08:57:09;100524.84;;;20.96;36.28
25638;BME280;13496;51.040;13.680;2023-05-31T09:02:13;100516.69;;;21.12;36.24
25638;BME280;13496;51.040;13.680;2023-05-31T09:07:15;100506.47;;;21.24;35.13
25638;BME280;13496;51.040;13.680;2023-05-31T09:12:17;100512.84;;;21.30;35.06
25638;BME280;13496;51.040;13.680;2023-05-31T09:17:19;100511.31;;;21.20;35.26
25638;BME280;13496;51.040;13.680;2023-05-31T09:22:21;100513.84;;;21.29;35.49
25638;BME280;13496;51.040;13.680;2023-05-31T09:27:24;100506.38;;;21.32;35.40
25638;BME280;13496;51.040;13.680;2023-05-31T09:32:27;100481.78;;;21.32;35.22
25638;BME280;13496;51.040;13.680;2023-05-31T09:37:28;100489.91;;;21.30;35.17
25638;BME280;13496;51.040;13.680;2023-05-31T09:42:30;100488.06;;;21.31;35.26
25638;BME280;13496;51.040;13.680;2023-05-31T09:47:32;100481.31;;;21.43;35.14
25638;BME280;13496;51.040;13.680;2023-05-31T09:52:34;100471.00;;;21.48;35.16
25638;BME280;13496;51.040;13.680;2023-05-31T09:57:40;100468.97;;;21.50;35.31
25638;BME280;13496;51.040;13.680;2023-05-31T10:02:44;100468.03;;;21.58;34.76
25638;BME280;13496;51.040;13.680;2023-05-31T10:07:50;100464.19;;;21.60;34.70
25638;BME280;13496;51.040;13.680;2023-05-31T10:12:57;100455.53;;;21.66;34.66
25638;BME280;13496;51.040;13.680;2023-05-31T10:18:02;100454.13;;;21.70;34.62
25638;BME280;13496;51.040;13.680;2023-05-31T10:23:25;100441.75;;;21.71;34.65
25638;BME280;13496;51.040;13.680;2023-05-31T10:28:28;100443.22;;;21.80;34.36
25638;BME280;13496;51.040;13.680;2023-05-31T10:33:32;100444.94;;;21.88;34.46
25638;BME280;13496;51.040;13.680;2023-05-31T10:38:45;100434.59;;;21.93;33.96
25638;BME280;13496;51.040;13.680;2023-05-31T10:44:16;100436.53;;;22.12;33.95
25638;BME280;13496;51.040;13.680;2023-05-31T10:49:21;100420.44;;;22.07;33.28
25638;BME280;13496;51.040;13.680;2023-05-31T10:54:28;100417.00;;;22.13;33.43
25638;BME280;13496;51.040;13.680;2023-05-31T10:59:39;100410.03;;;22.34;33.41
25638;BME280;13496;51.040;13.680;2023-05-31T11:04:40;100409.47;;;22.45;32.67
25638;BME280;13496;51.040;13.680;2023-05-31T11:09:54;100408.69;;;22.58;32.53
25638;BME280;13496;51.040;13.680;2023-05-31T11:15:02;100401.81;;;22.63;32.78
25638;BME280;13496;51.040;13.680;2023-05-31T11:20:07;100404.31;;;22.85;32.69
25638;BME280;13496;51.040;13.680;2023-05-31T11:25:19;100392.16;;;22.97;32.52
25638;BME280;13496;51.040;13.680;2023-05-31T11:30:35;100388.28;;;23.13;32.16
25638;BME280;13496;51.040;13.680;2023-05-31T11:35:37;100386.88;;;23.24;33.32
25638;BME280;13496;51.040;13.680;2023-05-31T11:40:38;100383.84;;;23.40;31.63
25638;BME280;13496;51.040;13.680;2023-05-31T11:45:43;100376.31;;;23.70;31.04
25638;BME280;13496;51.040;13.680;2023-05-31T11:50:47;100369.28;;;24.02;30.21
25638;BME280;13496;51.040;13.680;2023-05-31T11:55:48;100362.34;;;24.08;30.47
25638;BME280;13496;51.040;13.680;2023-05-31T12:11:01;100353.34;;;24.60;29.91
25638;BME280;13496;51.040;13.680;2023-05-31T12:16:04;100344.19;;;27.56;25.79
25638;BME280;13496;51.040;13.680;2023-05-31T12:21:09;100329.75;;;32.35;20.76
25638;BME280;13496;51.040;13.680;2023-05-31T12:26:13;100322.41;;;34.96;18.14
25638;BME280;13496;51.040;13.680;2023-05-31T12:31:22;100319.09;;;34.75;18.48
25638;BME280;13496;51.040;13.680;2023-05-31T12:36:25;100316.75;;;34.24;19.07
25638;BME280;13496;51.040;13.680;2023-05-31T12:41:27;100318.78;;;32.87;19.94
25638;BME280;13496;51.040;13.680;2023-05-31T12:46:37;100324.34;;;32.24;20.21
25638;BME280;13496;51.040;13.680;2023-05-31T12:51:38;100318.50;;;31.70;20.41
25638;BME280;13496;51.040;13.680;2023-05-31T12:56:40;100312.47;;;31.90;20.49
25638;BME280;13496;51.040;13.680;2023-05-31T13:01:42;100313.47;;;31.84;20.78
25638;BME280;13496;51.040;13.680;2023-05-31T13:06:44;100311.72;;;32.25;20.33
25638;BME280;13496;51.040;13.680;2023-05-31T13:11:46;100293.22;;;32.39;20.28
25638;BME280;13496;51.040;13.680;2023-05-31T13:16:53;100294.88;;;32.45;19.82
25638;BME280;13496;51.040;13.680;2023-05-31T13:21:54;100293.25;;;32.74;20.11
25638;BME280;13496;51.040;13.680;2023-05-31T13:26:56;100276.06;;;33.01;19.47
25638;BME280;13496;51.040;13.680;2023-05-31T13:31:58;100272.91;;;33.59;19.30
25638;BME280;13496;51.040;13.680;2023-05-31T13:37:00;100270.13;;;33.09;19.27
25638;BME280;13496;51.040;13.680;2023-05-31T13:42:04;100250.28;;;34.54;18.21
25638;BME280;13496;51.040;13.680;2023-05-31T13:47:06;100259.22;;;33.55;18.17
25638;BME280;13496;51.040;13.680;2023-05-31T13:52:07;100271.47;;;28.12;24.40
25638;BME280;13496;51.040;13.680;2023-05-31T13:57:11;100256.03;;;26.45;26.65
25638;BME280;13496;51.040;13.680;2023-05-31T14:02:13;100256.09;;;25.78;25.38
25638;BME280;13496;51.040;13.680;2023-05-31T14:07:14;100250.34;;;25.63;27.33
25638;BME280;13496;51.040;13.680;2023-05-31T14:12:19;100245.97;;;25.31;29.70
25638;BME280;13496;51.040;13.680;2023-05-31T14:17:21;100246.50;;;25.22;31.94
25638;BME280;13496;51.040;13.680;2023-05-31T14:22:23;100243.31;;;25.13;29.76
25638;BME280;13496;51.040;13.680;2023-05-31T14:27:25;100229.06;;;25.07;29.16
25638;BME280;13496;51.040;13.680;2023-05-31T14:32:26;100230.19;;;25.18;28.99
25638;BME280;13496;51.040;13.680;2023-05-31T14:37:28;100226.00;;;25.29;28.50
25638;BME280;13496;51.040;13.680;2023-05-31T14:42:30;100219.34;;;25.20;28.90
25638;BME280;13496;51.040;13.680;2023-05-31T14:47:33;100208.66;;;25.26;28.06
25638;BME280;13496;51.040;13.680;2023-05-31T14:52:34;100198.72;;;25.22;28.61
25638;BME280;13496;51.040;13.680;2023-05-31T14:57:36;100209.75;;;25.19;28.92
25638;BME280;13496;51.040;13.680;2023-05-31T15:02:38;100193.53;;;25.27;28.79
25638;BME280;13496;51.040;13.680;2023-05-31T15:07:40;100200.03;;;25.31;28.87
25638;BME280;13496;51.040;13.680;2023-05-31T15:12:41;100178.34;;;25.16;29.05
25638;BME280;13496;51.040;13.680;2023-05-31T15:17:43;100184.38;;;25.23;28.56
25638;BME280;13496;51.040;13.680;2023-05-31T15:22:47;100180.47;;;25.25;30.68
25638;BME280;13496;51.040;13.680;2023-05-31T15:27:49;100178.09;;;25.17;30.43
25638;BME280;13496;51.040;13.680;2023-05-31T15:32:51;100182.16;;;25.20;31.27
25638;BME280;13496;51.040;13.680;2023-05-31T15:37:52;100175.06;;;25.32;30.01
25638;BME280;13496;51.040;13.680;2023-05-31T15:42:54;100161.53;;;25.22;30.56
25638;BME280;13496;51.040;13.680;2023-05-31T15:47:56;100158.31;;;25.31;30.66
25638;BME280;13496;51.040;13.680;2023-05-31T15:52:57;100162.44;;;25.46;29.97
25638;BME280;13496;51.040;13.680;2023-05-31T15:57:59;100155.53;;;25.45;30.24
25638;BME280;13496;51.040;13.680;2023-05-31T16:03:01;100145.69;;;25.45;29.94
25638;BME280;13496;51.040;13.680;2023-05-31T16:08:04;100144.84;;;25.33;31.44
25638;BME280;13496;51.040;13.680;2023-05-31T16:13:06;100135.44;;;25.49;30.16
25638;BME280;13496;51.040;13.680;2023-05-31T16:18:09;100135.75;;;25.41;30.89
25638;BME280;13496;51.040;13.680;2023-05-31T16:23:11;100126.50;;;25.43;31.01
25638;BME280;13496;51.040;13.680;2023-05-31T16:28:13;100125.56;;;25.38;30.93
25638;BME280;13496;51.040;13.680;2023-05-31T16:33:14;100122.09;;;25.37;30.25
25638;BME280;13496;51.040;13.680;2023-05-31T16:38:16;100122.28;;;25.54;29.92
25638;BME280;13496;51.040;13.680;2023-05-31T16:43:18;100117.91;;;25.59;29.79
25638;BME280;13496;51.040;13.680;2023-05-31T16:48:19;100109.50;;;25.63;29.40
25638;BME280;13496;51.040;13.680;2023-05-31T16:53:21;100105.19;;;25.62;30.17
25638;BME280;13496;51.040;13.680;2023-05-31T16:58:23;100108.13;;;25.42;32.90
25638;BME280;13496;51.040;13.680;2023-05-31T17:03:25;100104.69;;;25.41;33.16
25638;BME280;13496;51.040;13.680;2023-05-31T17:08:27;100099.13;;;25.43;32.98
25638;BME280;13496;51.040;13.680;2023-05-31T17:13:29;100096.50;;;25.24;33.34
25638;BME280;13496;51.040;13.680;2023-05-31T17:18:31;100086.09;;;25.41;31.40
25638;BME280;13496;51.040;13.680;2023-05-31T17:23:32;100085.41;;;25.46;31.51
25638;BME280;13496;51.040;13.680;2023-05-31T17:28:34;100083.91;;;25.50;30.50
25638;BME280;13496;51.040;13.680;2023-05-31T17:33:36;100082.66;;;25.52;29.83
25638;BME280;13496;51.040;13.680;2023-05-31T17:38:38;100085.16;;;25.47;30.73
25638;BME280;13496;51.040;13.680;2023-05-31T17:43:40;100080.53;;;25.13;32.76
25638;BME280;13496;51.040;13.680;2023-05-31T17:48:41;100075.81;;;25.15;32.89
25638;BME280;13496;51.040;13.680;2023-05-31T17:53:43;100074.63;;;25.10;33.47
25638;BME280;13496;51.040;13.680;2023-05-31T17:58:45;100059.69;;;25.28;30.85
25638;BME280;13496;51.040;13.680;2023-05-31T18:03:47;100064.13;;;25.16;30.68
25638;BME280;13496;51.040;13.680;2023-05-31T18:08:48;100073.78;;;25.10;33.57
25638;BME280;13496;51.040;13.680;2023-05-31T18:13:50;100063.47;;;25.20;30.27
25638;BME280;13496;51.040;13.680;2023-05-31T18:18:52;100066.66;;;25.10;31.67
25638;BME280;13496;51.040;13.680;2023-05-31T18:23:54;100058.69;;;25.10;31.28
25638;BME280;13496;51.040;13.680;2023-05-31T18:28:55;100058.69;;;25.10;32.02
25638;BME280;13496;51.040;13.680;2023-05-31T18:33:57;100058.94;;;25.02;34.13
25638;BME280;13496;51.040;13.680;2023-05-31T18:38:59;100062.00;;;24.87;31.69
25638;BME280;13496;51.040;13.680;2023-05-31T18:44:01;100056.47;;;24.89;30.64
25638;BME280;13496;51.040;13.680;2023-05-31T18:49:03;100053.81;;;24.71;30.85
25638;BME280;13496;51.040;13.680;2023-05-31T18:54:05;100049.38;;;24.65;31.16
25638;BME280;13496;51.040;13.680;2023-05-31T18:59:07;100049.69;;;24.75;31.54
25638;BME280;13496;51.040;13.680;2023-05-31T19:04:09;100054.69;;;24.65;32.60
25638;BME280;13496;51.040;13.680;2023-05-31T19:09:12;100060.59;;;24.48;33.04
25638;BME280;13496;51.040;13.680;2023-05-31T19:14:14;100059.06;;;24.34;33.28
25638;BME280;13496;51.040;13.680;2023-05-31T19:19:17;100053.00;;;24.27;33.78
25638;BME280;13496;51.040;13.680;2023-05-31T19:24:18;100064.47;;;24.21;33.71
25638;BME280;13496;51.040;13.680;2023-05-31T19:29:20;100070.75;;;24.01;34.38
25638;BME280;13496;51.040;13.680;2023-05-31T19:34:22;100062.97;;;24.06;34.04
25638;BME280;13496;51.040;13.680;2023-05-31T19:39:24;100071.63;;;23.95;34.33
25638;BME280;13496;51.040;13.680;2023-05-31T19:44:26;100073.88;;;23.66;34.66
25638;BME280;13496;51.040;13.680;2023-05-31T19:49:28;100077.75;;;23.57;35.33
25638;BME280;13496;51.040;13.680;2023-05-31T19:54:29;100070.97;;;23.75;34.74
25638;BME280;13496;51.040;13.680;2023-05-31T19:59:31;100064.84;;;23.74;34.63
25638;BME280;13496;51.040;13.680;2023-05-31T20:04:33;100072.72;;;23.49;35.08
25638;BME280;13496;51.040;13.680;2023-05-31T20:09:35;100080.56;;;22.39;36.82
25638;BME280;13496;51.040;13.680;2023-05-31T20:14:36;100077.13;;;22.32;37.49
25638;BME280;13496;51.040;13.680;2023-05-31T20:19:38;100074.91;;;22.29;37.74
25638;BME280;13496;51.040;13.680;2023-05-31T20:24:40;100067.34;;;22.59;36.56
25638;BME280;13496;51.040;13.680;2023-05-31T20:29:42;100071.22;;;22.37;37.04
25638;BME280;13496;51.040;13.680;2023-05-31T20:34:43;100061.88;;;22.34;37.02
25638;BME280;13496;51.040;13.680;2023-05-31T20:39:45;100062.47;;;22.03;37.65
25638;BME280;13496;51.040;13.680;2023-05-31T20:44:50;100061.69;;;22.22;37.02
25638;BME280;13496;51.040;13.680;2023-05-31T20:49:52;100050.69;;;22.26;37.18
25638;BME280;13496;51.040;13.680;2023-05-31T20:54:54;100057.59;;;22.00;37.43
25638;BME280;13496;51.040;13.680;2023-05-31T20:59:55;100059.34;;;21.53;38.37
25638;BME280;13496;51.040;13.680;2023-05-31T21:04:58;100047.84;;;22.20;36.81
25638;BME280;13496;51.040;13.680;2023-05-31T21:09:59;100062.84;;;21.87;37.37
25638;BME280;13496;51.040;13.680;2023-05-31T21:15:02;100059.59;;;21.98;37.73
25638;BME280;13496;51.040;13.680;2023-05-31T21:20:04;100060.59;;;21.64;38.06
25638;BME280;13496;51.040;13.680;2023-05-31T21:25:06;100066.31;;;21.81;37.60
25638;BME280;13496;51.040;13.680;2023-05-31T21:30:08;100073.22;;;21.82;37.92
25638;BME280;13496;51.040;13.680;2023-05-31T21:35:10;100076.22;;;21.52;38.55
25638;BME280;13496;51.040;13.680;2023-05-31T21:40:12;100058.16;;;21.69;38.02
25638;BME280;13496;51.040;13.680;2023-05-31T21:45:13;100068.94;;;21.74;38.17
25638;BME280;13496;51.040;13.680;2023-05-31T21:50:15;100066.91;;;21.69;37.85
25638;BME280;13496;51.040;13.680;2023-05-31T21:55:17;100077.84;;;21.60;38.30
25638;BME280;13496;51.040;13.680;2023-05-31T22:00:18;100078.03;;;21.52;38.04
25638;BME280;13496;51.040;13.680;2023-05-31T22:05:20;100085.16;;;21.58;38.19
25638;BME280;13496;51.040;13.680;2023-05-31T22:10:22;100086.53;;;20.99;39.22
25638;BME280;13496;51.040;13.680;2023-05-31T22:15:24;100086.84;;;21.24;39.10
25638;BME280;13496;51.040;13.680;2023-05-31T22:20:27;100080.91;;;21.63;38.60
25638;BME280;13496;51.040;13.680;2023-05-31T22:25:29;100092.91;;;20.76;39.42
25638;BME280;13496;51.040;13.680;2023-05-31T22:30:30;100084.97;;;21.11;39.50
25638;BME280;13496;51.040;13.680;2023-05-31T22:35:32;100079.03;;;20.96;39.38
25638;BME280;13496;51.040;13.680;2023-05-31T22:40:34;100083.34;;;21.17;39.17
25638;BME280;13496;51.040;13.680;2023-05-31T22:45:37;100085.75;;;21.05;39.22
25638;BME280;13496;51.040;13.680;2023-05-31T22:50:39;100091.41;;;21.37;39.17
25638;BME280;13496;51.040;13.680;2023-05-31T22:55:41;100090.13;;;20.85;39.64
25638;BME280;13496;51.040;13.680;2023-05-31T23:00:43;100093.19;;;20.60;39.58
25638;BME280;13496;51.040;13.680;2023-05-31T23:05:44;100092.00;;;20.63;40.33
25638;BME280;13496;51.040;13.680;2023-05-31T23:10:46;100096.31;;;20.21;40.81
25638;BME280;13496;51.040;13.680;2023-05-31T23:15:49;100088.69;;;20.54;40.13
25638;BME280;13496;51.040;13.680;2023-05-31T23:20:51;100091.06;;;20.49;41.04
25638;BME280;13496;51.040;13.680;2023-05-31T23:25:56;100091.81;;;20.43;40.70
25638;BME280;13496;51.040;13.680;2023-05-31T23:30:57;100085.63;;;20.01;41.91
25638;BME280;13496;51.040;13.680;2023-05-31T23:35:59;100087.88;;;20.04;41.98
25638;BME280;13496;51.040;13.680;2023-05-31T23:41:01;100079.97;;;19.82;41.67
25638;BME280;13496;51.040;13.680;2023-05-31T23:46:03;100077.63;;;19.88;42.14
25638;BME280;13496;51.040;13.680;2023-05-31T23:51:04;100074.06;;;20.02;41.88
25638;BME280;13496;51.040;13.680;2023-05-31T23:56:08;100072.59;;;19.93;41.81
